Terminal Aerodrome Forecast
Issued by NWS

Home | Current Version | Previous Version | Text Only | Print | Product List | Glossary On
Versions: 1 2 3 4 5 6 7 8 9 10 11 12 13 14 15 16 17 18 19
000
FTUS42 KMLB 020313 AAB
TAFSFB
TAF AMD
KSFB 020313Z 0203/0224 03006KT 3/4SM BR OVC002
      TEMPO 0203/0207 1/2SM FG VV001
     FM021400 02003KT P6SM BKN010
     FM021800 06005KT P6SM SCT035=

USA.gov is the U.S. government's official web portal to all federal, state and local government web resources and services.